createdAt,value
2022-08-21T00:00:42.360Z,99817.03
2022-08-21T00:05:50.528Z,99804.41
2022-08-21T00:10:52.181Z,99795.84
2022-08-21T00:15:53.800Z,99799.09
2022-08-21T00:20:55.496Z,99795.28
2022-08-21T00:25:57.194Z,99798.78
2022-08-21T00:30:59.363Z,99784.84
2022-08-21T00:36:01.613Z,99778.81
2022-08-21T00:41:27.560Z,99782.19
2022-08-21T00:46:28.596Z,99787.84
2022-08-21T00:51:39.059Z,99792.06
2022-08-21T00:56:41.235Z,99787.00
2022-08-21T01:01:45.200Z,99793.88
2022-08-21T01:06:47.303Z,99800.25
2022-08-21T01:11:49.233Z,99782.91
2022-08-21T01:16:53.639Z,99769.03
2022-08-21T01:21:55.968Z,99763.06
2022-08-21T01:26:57.869Z,99756.78
2022-08-21T01:32:01.453Z,99737.84
2022-08-21T01:37:03.790Z,99730.00
2022-08-21T01:42:06.425Z,99713.63
2022-08-21T01:47:13.263Z,99724.66
2022-08-21T01:52:15.000Z,99723.28
2022-08-21T01:57:17.518Z,99717.50
2022-08-21T02:02:19.202Z,99737.31
2022-08-21T02:07:20.939Z,99732.00
2022-08-21T02:12:22.536Z,99727.41
2022-08-21T02:17:24.135Z,99718.78
2022-08-21T02:22:25.756Z,99720.31
2022-08-21T02:27:27.833Z,99706.63
2022-08-21T02:32:29.460Z,99700.59
2022-08-21T02:37:31.406Z,99693.69
2022-08-21T02:42:32.996Z,99694.59
2022-08-21T02:47:34.606Z,99697.09
2022-08-21T02:52:36.277Z,99686.75
2022-08-21T02:57:38.052Z,99699.81
2022-08-21T03:02:39.779Z,99701.88
2022-08-21T03:07:41.989Z,99706.47
2022-08-21T03:12:44.147Z,99703.09
2022-08-21T03:17:47.041Z,99706.97
2022-08-21T03:22:52.945Z,99704.66
2022-08-21T03:27:58.702Z,99698.63
2022-08-21T03:33:01.335Z,99694.97
2022-08-21T03:38:02.939Z,99707.50
2022-08-21T03:43:05.691Z,99710.91
2022-08-21T03:48:08.540Z,99716.78
2022-08-21T03:53:17.068Z,99721.84
2022-08-21T03:58:23.214Z,99719.22
2022-08-21T04:03:26.230Z,99717.16
2022-08-21T04:08:27.838Z,99729.16
2022-08-21T04:13:29.440Z,99728.72
2022-08-21T04:18:31.167Z,99724.13
2022-08-21T04:23:33.218Z,99721.44
2022-08-21T04:28:34.889Z,99711.66
2022-08-21T04:33:36.497Z,99721.72
2022-08-21T04:38:38.713Z,99733.06
2022-08-21T04:43:46.185Z,99739.25
2022-08-21T04:48:47.808Z,99745.69
2022-08-21T04:54:00.379Z,99731.16
2022-08-21T04:59:06.530Z,99739.44
2022-08-21T05:04:11.340Z,99748.34
2022-08-21T05:09:15.554Z,99746.63
2022-08-21T05:14:17.236Z,99739.00
2022-08-21T05:19:18.795Z,99751.34
2022-08-21T05:24:20.777Z,99749.56
2022-08-21T05:29:22.775Z,99758.47
2022-08-21T05:34:24.937Z,99776.31
2022-08-21T05:39:26.560Z,99776.75
2022-08-21T05:44:28.144Z,99783.88
2022-08-21T05:49:29.792Z,99790.66
2022-08-21T05:54:31.944Z,99795.97
2022-08-21T05:59:33.511Z,99795.59
2022-08-21T06:04:41.627Z,99809.06
2022-08-21T06:09:43.260Z,99802.94
2022-08-21T06:14:44.912Z,99812.41
2022-08-21T06:19:46.503Z,99810.69
2022-08-21T06:24:48.175Z,99828.59
2022-08-21T06:29:49.956Z,99843.25
2022-08-21T06:34:52.142Z,99855.22
2022-08-21T06:39:53.807Z,99858.81
2022-08-21T06:44:55.773Z,99866.34
2022-08-21T06:49:57.396Z,99880.44
2022-08-21T06:54:59.276Z,99872.69
2022-08-21T07:00:01.006Z,99878.22
2022-08-21T07:05:17.586Z,99899.44
2022-08-21T07:10:22.425Z,99908.84
2022-08-21T07:15:24.491Z,99915.59
2022-08-21T07:20:27.801Z,99907.66
2022-08-21T07:25:29.630Z,99902.84
2022-08-21T07:30:31.581Z,99900.72
2022-08-21T07:35:34.254Z,99905.00
2022-08-21T07:40:36.154Z,99893.03
2022-08-21T07:45:38.444Z,99898.78
2022-08-21T07:50:41.697Z,99906.00
2022-08-21T07:55:43.780Z,99916.78
2022-08-21T08:00:45.417Z,99920.53
2022-08-21T08:05:47.116Z,99903.13
2022-08-21T08:10:50.540Z,99913.72
2022-08-21T08:15:52.875Z,99916.78
2022-08-21T08:20:54.509Z,99926.66
2022-08-21T08:25:56.127Z,99913.69
2022-08-21T08:30:57.712Z,99924.97
2022-08-21T08:36:03.401Z,99927.34
2022-08-21T08:41:18.314Z,99924.94
2022-08-21T08:46:35.642Z,99937.06
2022-08-21T08:51:42.782Z,99925.81
2022-08-21T08:56:46.102Z,99926.63
2022-08-21T09:01:47.957Z,99926.63
2022-08-21T09:07:51.301Z,99927.00
2022-08-21T09:12:52.912Z,99935.53
2022-08-21T09:18:08.718Z,99935.09
2022-08-21T09:23:19.345Z,99942.56
2022-08-21T09:28:20.926Z,99953.59
2022-08-21T09:33:22.536Z,99951.06
2022-08-21T09:38:33.572Z,99949.63
2022-08-21T09:43:36.090Z,99951.19
2022-08-21T09:48:49.094Z,99947.13
2022-08-21T09:54:18.204Z,99948.50
2022-08-21T09:59:36.333Z,99945.78
2022-08-21T10:04:38.880Z,99942.03
2022-08-21T10:09:41.419Z,99953.97
2022-08-21T10:14:56.633Z,99950.19
2022-08-21T10:20:19.562Z,99959.59
2022-08-21T10:25:21.268Z,99960.44
2022-08-21T10:30:47.410Z,99963.84
2022-08-21T10:36:21.395Z,99952.41
2022-08-21T10:41:48.041Z,99948.50
2022-08-21T10:47:01.405Z,99950.34
2022-08-21T10:52:10.566Z,99953.94
2022-08-21T10:57:38.145Z,99948.50
2022-08-21T11:02:47.376Z,99948.75
2022-08-21T11:07:59.637Z,99943.47
2022-08-21T11:13:08.261Z,99943.28
2022-08-21T11:18:33.893Z,99956.56
2022-08-21T11:23:40.962Z,99967.84
2022-08-21T11:29:09.052Z,99949.47
2022-08-21T11:34:20.828Z,99957.22
2022-08-21T11:39:31.241Z,99965.22
2022-08-21T11:44:38.770Z,99960.34
2022-08-21T11:50:35.066Z,99949.28
2022-08-21T11:55:44.380Z,99940.97
2022-08-21T12:00:57.249Z,99957.72
2022-08-21T12:06:03.258Z,99954.19
2022-08-21T12:11:16.937Z,99960.78
2022-08-21T12:16:31.736Z,99959.25
2022-08-21T12:21:34.114Z,99964.81
2022-08-21T12:26:59.118Z,99969.25
2022-08-21T12:32:23.479Z,99961.47
2022-08-21T12:37:41.886Z,99968.84
2022-08-21T12:42:58.547Z,99954.19
2022-08-21T12:48:42.816Z,99952.78
2022-08-21T12:53:54.833Z,99957.91
2022-08-21T12:59:06.338Z,99955.84
2022-08-21T13:04:13.909Z,99954.47
2022-08-21T13:09:20.848Z,99950.06
2022-08-21T13:14:45.825Z,99953.78
2022-08-21T13:20:01.254Z,99947.22
2022-08-21T13:25:07.036Z,99952.97
2022-08-21T13:30:18.693Z,99950.34
2022-08-21T13:35:49.540Z,99952.22
2022-08-21T13:40:56.962Z,99968.66
2022-08-21T13:45:59.389Z,99962.66
2022-08-21T13:51:01.933Z,99952.63
2022-08-21T13:56:05.869Z,99954.25
2022-08-21T14:01:27.307Z,99957.94
2022-08-21T14:06:33.992Z,99956.94
2022-08-21T14:11:36.688Z,99952.06
2022-08-21T14:16:47.332Z,99965.47
2022-08-21T14:21:49.159Z,99963.66
2022-08-21T14:27:02.629Z,99960.97
2022-08-21T14:32:24.636Z,99953.56
2022-08-21T14:37:26.912Z,99964.75
2022-08-21T14:42:29.628Z,99959.53
2022-08-21T14:47:31.258Z,99969.25
2022-08-21T14:52:33.501Z,99962.00
2022-08-21T14:57:35.698Z,99970.97
2022-08-21T15:02:37.442Z,99958.66
2022-08-21T15:07:39.217Z,99964.44
2022-08-21T15:12:41.102Z,99958.16
2022-08-21T15:17:46.171Z,99968.63
2022-08-21T15:22:49.887Z,99960.75
2022-08-21T15:27:52.280Z,99961.63
2022-08-21T15:32:53.915Z,99957.56
2022-08-21T15:37:55.539Z,99967.53
2022-08-21T15:43:03.081Z,99961.06
2022-08-21T15:48:05.378Z,99973.03
2022-08-21T15:53:07.722Z,99966.94
2022-08-21T15:58:15.328Z,99960.97
2022-08-21T16:03:22.585Z,99964.28
2022-08-21T16:08:25.943Z,99961.03
2022-08-21T16:13:33.431Z,99964.44
2022-08-21T16:18:35.074Z,99967.06
2022-08-21T16:23:39.055Z,99963.44
2022-08-21T16:28:43.026Z,99962.16
2022-08-21T16:33:49.774Z,99959.63
2022-08-21T16:38:54.677Z,99961.16
2022-08-21T16:43:56.424Z,99956.00
2022-08-21T16:48:58.056Z,99967.19
2022-08-21T16:54:00.142Z,99978.13
2022-08-21T16:59:02.001Z,99989.66
2022-08-21T17:04:04.340Z,99993.88
2022-08-21T17:09:06.017Z,99991.44
2022-08-21T17:14:23.018Z,99982.19
2022-08-21T17:19:24.648Z,99982.06
2022-08-21T17:24:26.423Z,99981.78
2022-08-21T17:29:31.396Z,99983.22
2022-08-21T17:34:33.056Z,99983.81
2022-08-21T17:39:36.032Z,99989.72
2022-08-21T17:44:39.965Z,100000.72
2022-08-21T17:49:41.727Z,99995.66
2022-08-21T17:54:43.398Z,100003.88
2022-08-21T17:59:45.252Z,99996.44
2022-08-21T18:04:47.048Z,100003.59
2022-08-21T18:09:52.116Z,99997.41
2022-08-21T18:14:55.665Z,100006.94
2022-08-21T18:19:59.594Z,100000.88
2022-08-21T18:25:01.257Z,99996.59
2022-08-21T18:30:03.684Z,100010.38
2022-08-21T18:35:06.950Z,100011.09
2022-08-21T18:40:11.304Z,100007.19
2022-08-21T18:45:16.032Z,100006.19
2022-08-21T18:50:20.723Z,100007.53
2022-08-21T18:55:23.111Z,100013.44
2022-08-21T19:00:30.590Z,100010.81
2022-08-21T19:05:32.184Z,100023.44
2022-08-21T19:10:34.808Z,100030.66
2022-08-21T19:15:38.500Z,100028.59
2022-08-21T19:20:42.256Z,100035.13
2022-08-21T19:25:47.124Z,100031.53
2022-08-21T19:31:16.652Z,100028.47
2022-08-21T19:36:21.791Z,100012.41
2022-08-21T19:41:28.389Z,100008.50
2022-08-21T19:46:41.892Z,100011.91
2022-08-21T19:51:44.643Z,100009.03
2022-08-21T19:56:47.194Z,100014.19
2022-08-21T20:01:49.420Z,100022.56
2022-08-21T20:06:51.510Z,100018.44
2022-08-21T20:11:57.568Z,100024.59
2022-08-21T20:17:19.027Z,100022.53
2022-08-21T20:22:21.461Z,100022.50
2022-08-21T20:27:27.603Z,100032.63
2022-08-21T20:32:29.283Z,100025.97
2022-08-21T20:37:36.733Z,100028.69
2022-08-21T20:42:41.496Z,100023.56
2022-08-21T20:47:46.920Z,100027.31
2022-08-21T20:53:02.075Z,100015.19
2022-08-21T20:58:12.633Z,100009.91
2022-08-21T21:03:26.386Z,100007.34
2022-08-21T21:08:46.952Z,100000.38
2022-08-21T21:14:00.947Z,100008.91
2022-08-21T21:19:11.156Z,100000.03
2022-08-21T21:24:56.385Z,100013.66
2022-08-21T21:30:20.976Z,100024.25
2022-08-21T21:35:36.350Z,100033.63
2022-08-21T21:41:05.562Z,100037.91
2022-08-21T21:46:33.402Z,100029.72
2022-08-21T21:51:48.151Z,100029.72
2022-08-21T21:57:40.018Z,100022.22
2022-08-21T22:03:05.774Z,100013.31
2022-08-21T22:08:19.641Z,100006.16
2022-08-21T22:13:38.552Z,100003.38
2022-08-21T22:24:22.444Z,100019.78
2022-08-21T22:29:24.890Z,100023.34
2022-08-21T22:34:28.800Z,100014.00
2022-08-21T22:39:39.299Z,99997.28
2022-08-21T22:44:56.411Z,99982.25
2022-08-21T22:55:33.078Z,99973.53
2022-08-21T23:01:02.200Z,99966.50
2022-08-21T23:06:21.681Z,99974.03
2022-08-21T23:11:36.300Z,99973.00
2022-08-21T23:16:59.653Z,99992.78
2022-08-21T23:22:38.877Z,99992.56
2022-08-21T23:27:59.996Z,99998.91
2022-08-21T23:33:09.056Z,100006.44
2022-08-21T23:38:33.412Z,100007.28
2022-08-21T23:44:00.986Z,99993.81
2022-08-21T23:49:31.448Z,99989.72
2022-08-21T23:54:36.766Z,99996.91
2022-08-21T23:59:43.676Z,99991.44
